Wetterdaten: Montag, 08.06.2015
Datum Zeit Temp. A. Feuchte A. Luftdruck Regen Wind Richtung Richtung Sonnenschein ET UV Solar Taupunkt Windchill Windben Empfang
08.06.2015 00:00 19,7 C 72 % 1019,2 hPa 0,0 l/m 0,0 km/h (0 Bft) O 90 0 min 0,000 mm 0,0 UV-I 0 W/m 14,5 C 19,7 C 0,0 km/h (0 Bft) 0,00 %
08.06.2015 01:00 18,4 C 82 % 1019,1 hPa 0,0 l/m 0,0 km/h (0 Bft) O 90 0 min 0,000 mm 0,0 UV-I 0 W/m 15,3 C 18,4 C 0,0 km/h (0 Bft) 0,00 %
08.06.2015 02:00 18,1 C 82 % 1018,7 hPa 0,0 l/m 0,0 km/h (0 Bft) O-SO 110 0 min 0,000 mm 0,0 UV-I 0 W/m 15,0 C 18,1 C 0,0 km/h (0 Bft) 0,00 %
08.06.2015 03:00 17,2 C 85 % 1018,1 hPa 0,0 l/m 0,0 km/h (0 Bft) O-SO 120 0 min 0,000 mm 0,0 UV-I 0 W/m 14,7 C 17,2 C 0,0 km/h (0 Bft) 0,00 %
08.06.2015 04:00 15,7 C 89 % 1018,8 hPa 0,0 l/m 0,0 km/h (0 Bft) S 180 0 min 0,000 mm 0,0 UV-I 0 W/m 13,9 C 15,7 C 0,0 km/h (0 Bft) 0,00 %
08.06.2015 05:00 15,1 C 91 % 1018,9 hPa 0,0 l/m 0,0 km/h (0 Bft) S-SO 150 0 min 0,000 mm 0,0 UV-I 0 W/m 13,6 C 15,1 C 0,0 km/h (0 Bft) 0,00 %
08.06.2015 06:00 16,9 C 83 % 1018,6 hPa 0,0 l/m 0,0 km/h (0 Bft) S 180 60 min 0,000 mm 0,0 UV-I 131 W/m 14,0 C 16,9 C 0,0 km/h (0 Bft) 0,00 %
08.06.2015 07:00 19,8 C 69 % 1017,8 hPa 0,0 l/m 0,0 km/h (0 Bft) NO 50 60 min 0,000 mm 1,0 UV-I 333 W/m 13,9 C 19,8 C 0,0 km/h (0 Bft) 0,00 %
08.06.2015 08:00 20,3 C 65 % 1018,1 hPa 0,0 l/m 0,6 km/h (0 Bft) O-NO 60 60 min 0,000 mm 2,0 UV-I 470 W/m 13,5 C 20,3 C 4,0 km/h (1 Bft) 0,00 %
08.06.2015 09:00 22,6 C 60 % 1017,8 hPa 0,0 l/m 1,4 km/h (1 Bft) O-NO 60 60 min 0,000 mm 2,0 UV-I 451 W/m 14,4 C 22,6 C 4,0 km/h (1 Bft) 0,00 %
08.06.2015 10:00 21,3 C 63 % 1017,9 hPa 0,0 l/m 0,0 km/h (0 Bft) O-SO 120 0 min 0,000 mm 2,0 UV-I 283 W/m 14,0 C 21,3 C 0,0 km/h (0 Bft) 0,00 %
08.06.2015 11:00 22,3 C 63 % 1017,4 hPa 0,0 l/m 0,0 km/h (0 Bft) S-SW 210 0 min 0,000 mm 1,0 UV-I 181 W/m 14,9 C 22,3 C 0,0 km/h (0 Bft) 0,00 %
08.06.2015 12:00 22,4 C 62 % 1017,1 hPa 0,0 l/m 0,0 km/h (0 Bft) S 180 0 min 0,000 mm 1,0 UV-I 239 W/m 14,8 C 22,4 C 0,0 km/h (0 Bft) 0,00 %
08.06.2015 13:00 22,7 C 63 % 1017,0 hPa 0,0 l/m 0,6 km/h (0 Bft) S 180 0 min 0,000 mm 3,0 UV-I 480 W/m 15,3 C 22,7 C 4,0 km/h (1 Bft) 0,00 %
08.06.2015 14:00 26,4 C 51 % 1015,7 hPa 0,0 l/m 1,8 km/h (1 Bft) SW 220 60 min 0,000 mm 3,0 UV-I 628 W/m 15,4 C 26,4 C 4,0 km/h (1 Bft) 0,00 %
08.06.2015 15:00 24,3 C 53 % 1015,3 hPa 0,0 l/m 0,0 km/h (0 Bft) SO 130 60 min 0,000 mm 4,0 UV-I 822 W/m 14,1 C 24,3 C 0,0 km/h (0 Bft) 0,00 %
08.06.2015 16:00 27,3 C 48 % 1014,6 hPa 0,0 l/m 5,8 km/h (2 Bft) SO 130 60 min 0,000 mm 3,0 UV-I 838 W/m 15,3 C 27,3 C 7,9 km/h (2 Bft) 0,00 %
08.06.2015 17:00 26,7 C 46 % 1013,9 hPa 0,0 l/m 0,0 km/h (0 Bft) SO 130 60 min 0,000 mm 2,0 UV-I 747 W/m 14,1 C 26,7 C 0,0 km/h (0 Bft) 0,00 %
08.06.2015 18:00 25,0 C 54 % 1013,4 hPa 0,0 l/m 0,0 km/h (0 Bft) O-SO 120 0 min 0,000 mm 1,0 UV-I 144 W/m 15,0 C 25,0 C 0,0 km/h (0 Bft) 0,00 %
08.06.2015 19:00 21,3 C 64 % 1014,0 hPa 0,0 l/m 1,4 km/h (1 Bft) N-NO 20 0 min 0,000 mm 0,0 UV-I 12 W/m 14,2 C 21,3 C 4,0 km/h (1 Bft) 0,00 %
08.06.2015 20:00 19,5 C 72 % 1013,9 hPa 0,0 l/m 0,3 km/h (0 Bft) N-NO 20 0 min 0,000 mm 0,0 UV-I 0 W/m 14,3 C 19,5 C 4,0 km/h (1 Bft) 0,00 %
08.06.2015 21:00 17,1 C 90 % 1016,1 hPa 7,1 l/m 7,9 km/h (2 Bft) SW 230 0 min 0,000 mm 0,0 UV-I 0 W/m 15,4 C 16,4 C 11,9 km/h (2 Bft) 0,00 %
08.06.2015 22:00 15,5 C 96 % 1017,0 hPa 29,2 l/m 0,0 km/h (0 Bft) O-SO 120 0 min 0,000 mm 0,0 UV-I 0 W/m 14,9 C 15,5 C 0,0 km/h (0 Bft) 0,00 %
08.06.2015 23:00 14,9 C 98 % 1018,2 hPa 8,9 l/m 4,7 km/h (1 Bft) S-SW 210 0 min 0,000 mm 0,0 UV-I 0 W/m 14,6 C 14,9 C 7,9 km/h (2 Bft) 0,00 %
_ Min-Zeit 23:00 17:00 18:00 - 00:00 - - - - - - 08:00 23:00 00:00 00:00
Minimum _ 14,9 C 46 % 1013,4 hPa - 0,0 km/h (0 Bft) - - - - - - 13,5 C 14,9 C 0,0 km/h (0 Bft) 0,00 %
_ Max-Zeit 16:00 23:00 00:00 22:00 21:00 - - 06:00 00:00 15:00 16:00 21:00 16:00 21:00 00:00
Maximum _ 27,3 C 98 % 1019,2 hPa 29,2 l/m 7,9 km/h
SW (2 Bft)
- - 60 min 0,000 mm 4,0 UV-I 838 W/m 15,4 C 27,3 C 11,9 km/h
SW (2 Bft)
0,00 %
Durchschnitt _ 20,5 C 71 % 1016,8 hPa #45,2 l/m 1,1 km/h (0 Bft) SW - #8:00 h #0,000 mm 2,1 UV-I 411 W/m 14,5 C 20,4 C 2,2 km/h (1 Bft) 0,00 %